sensor_id;sensor_type;location;lat;lon;timestamp;P1;durP1;ratioP1;P2;durP2;ratioP2
75167;SDS011;63748;48.088;11.476;2023-05-27T00:01:30;9.52;;;5.85;;
75167;SDS011;63748;48.088;11.476;2023-05-27T00:03:56;8.10;;;5.78;;
75167;SDS011;63748;48.088;11.476;2023-05-27T00:06:22;7.93;;;5.07;;
75167;SDS011;63748;48.088;11.476;2023-05-27T00:08:48;11.27;;;5.40;;
75167;SDS011;63748;48.088;11.476;2023-05-27T00:11:14;10.43;;;6.40;;
75167;SDS011;63748;48.088;11.476;2023-05-27T00:13:40;9.85;;;5.80;;
75167;SDS011;63748;48.088;11.476;2023-05-27T00:16:06;11.90;;;4.95;;
75167;SDS011;63748;48.088;11.476;2023-05-27T00:18:33;8.13;;;5.07;;
75167;SDS011;63748;48.088;11.476;2023-05-27T00:21:00;10.00;;;5.22;;
75167;SDS011;63748;48.088;11.476;2023-05-27T00:23:27;7.85;;;5.15;;
75167;SDS011;63748;48.088;11.476;2023-05-27T00:25:53;8.85;;;4.75;;
75167;SDS011;63748;48.088;11.476;2023-05-27T00:28:19;8.98;;;5.82;;
75167;SDS011;63748;48.088;11.476;2023-05-27T00:30:45;9.68;;;5.68;;
75167;SDS011;63748;48.088;11.476;2023-05-27T00:33:11;8.70;;;5.93;;
75167;SDS011;63748;48.088;11.476;2023-05-27T00:35:37;11.35;;;5.32;;
75167;SDS011;63748;48.088;11.476;2023-05-27T00:38:04;8.00;;;5.68;;
75167;SDS011;63748;48.088;11.476;2023-05-27T00:40:30;8.65;;;5.55;;
75167;SDS011;63748;48.088;11.476;2023-05-27T00:42:56;10.55;;;6.15;;
75167;SDS011;63748;48.088;11.476;2023-05-27T00:45:23;9.25;;;5.40;;
75167;SDS011;63748;48.088;11.476;2023-05-27T00:47:49;8.52;;;5.57;;
75167;SDS011;63748;48.088;11.476;2023-05-27T00:50:16;10.40;;;5.75;;
75167;SDS011;63748;48.088;11.476;2023-05-27T00:52:42;8.65;;;5.00;;
75167;SDS011;63748;48.088;11.476;2023-05-27T00:55:08;8.63;;;5.50;;
75167;SDS011;63748;48.088;11.476;2023-05-27T00:57:35;12.68;;;6.07;;
75167;SDS011;63748;48.088;11.476;2023-05-27T01:00:02;8.75;;;5.78;;
75167;SDS011;63748;48.088;11.476;2023-05-27T01:02:32;7.47;;;5.25;;
75167;SDS011;63748;48.088;11.476;2023-05-27T01:04:58;8.30;;;5.43;;
75167;SDS011;63748;48.088;11.476;2023-05-27T01:07:37;10.02;;;5.13;;
75167;SDS011;63748;48.088;11.476;2023-05-27T01:10:52;10.30;;;5.50;;
75167;SDS011;63748;48.088;11.476;2023-05-27T01:13:01;8.68;;;5.45;;
75167;SDS011;63748;48.088;11.476;2023-05-27T01:15:31;9.77;;;5.55;;
75167;SDS011;63748;48.088;11.476;2023-05-27T01:17:58;9.82;;;5.43;;
75167;SDS011;63748;48.088;11.476;2023-05-27T01:20:26;11.82;;;6.15;;
75167;SDS011;63748;48.088;11.476;2023-05-27T01:22:52;11.25;;;6.18;;
75167;SDS011;63748;48.088;11.476;2023-05-27T01:25:19;9.48;;;6.25;;
75167;SDS011;63748;48.088;11.476;2023-05-27T01:27:46;8.27;;;6.45;;
75167;SDS011;63748;48.088;11.476;2023-05-27T01:30:12;9.90;;;6.22;;
75167;SDS011;63748;48.088;11.476;2023-05-27T01:35:27;9.77;;;5.90;;
75167;SDS011;63748;48.088;11.476;2023-05-27T01:37:51;9.68;;;6.32;;
75167;SDS011;63748;48.088;11.476;2023-05-27T01:40:17;10.07;;;5.93;;
75167;SDS011;63748;48.088;11.476;2023-05-27T01:42:43;11.98;;;6.25;;
75167;SDS011;63748;48.088;11.476;2023-05-27T01:45:10;7.97;;;5.50;;
75167;SDS011;63748;48.088;11.476;2023-05-27T01:47:37;14.98;;;7.35;;
75167;SDS011;63748;48.088;11.476;2023-05-27T01:50:04;9.88;;;5.97;;
75167;SDS011;63748;48.088;11.476;2023-05-27T01:52:30;9.82;;;6.50;;
75167;SDS011;63748;48.088;11.476;2023-05-27T01:54:56;9.80;;;5.78;;
75167;SDS011;63748;48.088;11.476;2023-05-27T01:57:24;10.07;;;6.10;;
75167;SDS011;63748;48.088;11.476;2023-05-27T01:59:50;8.60;;;5.97;;
75167;SDS011;63748;48.088;11.476;2023-05-27T02:02:16;10.48;;;6.10;;
75167;SDS011;63748;48.088;11.476;2023-05-27T02:04:42;12.00;;;6.15;;
75167;SDS011;63748;48.088;11.476;2023-05-27T02:07:08;9.15;;;6.60;;
75167;SDS011;63748;48.088;11.476;2023-05-27T02:09:35;10.38;;;6.82;;
75167;SDS011;63748;48.088;11.476;2023-05-27T02:12:02;8.73;;;6.22;;
75167;SDS011;63748;48.088;11.476;2023-05-27T02:14:28;8.23;;;5.65;;
75167;SDS011;63748;48.088;11.476;2023-05-27T02:16:54;9.55;;;6.38;;
75167;SDS011;63748;48.088;11.476;2023-05-27T02:19:20;11.30;;;6.03;;
75167;SDS011;63748;48.088;11.476;2023-05-27T02:21:47;11.48;;;6.25;;
75167;SDS011;63748;48.088;11.476;2023-05-27T02:24:13;9.65;;;6.00;;
75167;SDS011;63748;48.088;11.476;2023-05-27T02:26:39;11.35;;;6.15;;
75167;SDS011;63748;48.088;11.476;2023-05-27T02:29:05;10.77;;;6.53;;
75167;SDS011;63748;48.088;11.476;2023-05-27T02:31:31;11.52;;;6.72;;
75167;SDS011;63748;48.088;11.476;2023-05-27T02:33:57;9.57;;;6.07;;
75167;SDS011;63748;48.088;11.476;2023-05-27T02:36:23;9.82;;;5.35;;
75167;SDS011;63748;48.088;11.476;2023-05-27T02:38:50;10.43;;;6.40;;
75167;SDS011;63748;48.088;11.476;2023-05-27T02:41:16;9.90;;;6.40;;
75167;SDS011;63748;48.088;11.476;2023-05-27T02:43:42;11.45;;;6.63;;
75167;SDS011;63748;48.088;11.476;2023-05-27T02:46:08;11.25;;;5.97;;
75167;SDS011;63748;48.088;11.476;2023-05-27T02:48:34;9.10;;;5.95;;
75167;SDS011;63748;48.088;11.476;2023-05-27T02:51:00;10.15;;;6.00;;
75167;SDS011;63748;48.088;11.476;2023-05-27T02:53:26;11.60;;;6.00;;
75167;SDS011;63748;48.088;11.476;2023-05-27T02:55:52;8.88;;;6.32;;
75167;SDS011;63748;48.088;11.476;2023-05-27T02:58:18;9.65;;;6.32;;
75167;SDS011;63748;48.088;11.476;2023-05-27T03:00:44;8.80;;;5.68;;
75167;SDS011;63748;48.088;11.476;2023-05-27T03:03:10;9.93;;;6.40;;
75167;SDS011;63748;48.088;11.476;2023-05-27T03:05:36;10.23;;;5.80;;
75167;SDS011;63748;48.088;11.476;2023-05-27T03:08:03;10.57;;;6.22;;
75167;SDS011;63748;48.088;11.476;2023-05-27T03:12:56;11.85;;;6.38;;
75167;SDS011;63748;48.088;11.476;2023-05-27T03:15:23;11.00;;;5.93;;
75167;SDS011;63748;48.088;11.476;2023-05-27T03:17:49;10.07;;;5.63;;
75167;SDS011;63748;48.088;11.476;2023-05-27T03:20:15;7.78;;;5.45;;
75167;SDS011;63748;48.088;11.476;2023-05-27T03:22:43;8.80;;;6.07;;
75167;SDS011;63748;48.088;11.476;2023-05-27T03:25:10;9.38;;;6.18;;
75167;SDS011;63748;48.088;11.476;2023-05-27T03:27:36;10.15;;;6.38;;
75167;SDS011;63748;48.088;11.476;2023-05-27T03:30:03;10.35;;;5.75;;
75167;SDS011;63748;48.088;11.476;2023-05-27T03:32:30;10.52;;;7.40;;
75167;SDS011;63748;48.088;11.476;2023-05-27T03:34:56;12.38;;;6.63;;
75167;SDS011;63748;48.088;11.476;2023-05-27T03:37:22;8.75;;;6.20;;
75167;SDS011;63748;48.088;11.476;2023-05-27T03:39:54;8.23;;;5.43;;
75167;SDS011;63748;48.088;11.476;2023-05-27T03:42:20;10.40;;;5.90;;
75167;SDS011;63748;48.088;11.476;2023-05-27T03:44:46;9.40;;;6.30;;
75167;SDS011;63748;48.088;11.476;2023-05-27T03:47:12;8.57;;;5.72;;
75167;SDS011;63748;48.088;11.476;2023-05-27T03:49:38;14.15;;;6.53;;
75167;SDS011;63748;48.088;11.476;2023-05-27T03:52:04;9.02;;;5.78;;
75167;SDS011;63748;48.088;11.476;2023-05-27T03:54:31;8.90;;;5.50;;
75167;SDS011;63748;48.088;11.476;2023-05-27T03:56:57;9.50;;;5.82;;
75167;SDS011;63748;48.088;11.476;2023-05-27T03:59:23;10.05;;;5.10;;
75167;SDS011;63748;48.088;11.476;2023-05-27T04:01:49;8.30;;;5.55;;
75167;SDS011;63748;48.088;11.476;2023-05-27T04:04:15;8.75;;;6.07;;
75167;SDS011;63748;48.088;11.476;2023-05-27T04:06:41;9.02;;;5.20;;
75167;SDS011;63748;48.088;11.476;2023-05-27T04:09:08;9.63;;;5.45;;
75167;SDS011;63748;48.088;11.476;2023-05-27T04:11:34;8.68;;;5.50;;
75167;SDS011;63748;48.088;11.476;2023-05-27T04:14:00;8.30;;;5.72;;
75167;SDS011;63748;48.088;11.476;2023-05-27T04:16:26;9.10;;;5.53;;
75167;SDS011;63748;48.088;11.476;2023-05-27T04:18:56;8.43;;;4.82;;
75167;SDS011;63748;48.088;11.476;2023-05-27T04:21:23;10.68;;;5.82;;
75167;SDS011;63748;48.088;11.476;2023-05-27T04:23:49;10.00;;;5.43;;
75167;SDS011;63748;48.088;11.476;2023-05-27T04:26:15;7.30;;;5.25;;
75167;SDS011;63748;48.088;11.476;2023-05-27T04:28:41;9.13;;;6.03;;
75167;SDS011;63748;48.088;11.476;2023-05-27T04:31:10;9.10;;;5.57;;
75167;SDS011;63748;48.088;11.476;2023-05-27T04:33:38;7.25;;;5.22;;
75167;SDS011;63748;48.088;11.476;2023-05-27T04:36:05;9.85;;;5.20;;
75167;SDS011;63748;48.088;11.476;2023-05-27T04:38:31;10.60;;;5.30;;
75167;SDS011;63748;48.088;11.476;2023-05-27T04:40:57;12.02;;;6.10;;
75167;SDS011;63748;48.088;11.476;2023-05-27T04:43:23;9.63;;;5.72;;
75167;SDS011;63748;48.088;11.476;2023-05-27T04:45:51;8.88;;;5.47;;
75167;SDS011;63748;48.088;11.476;2023-05-27T04:48:17;10.25;;;5.70;;
75167;SDS011;63748;48.088;11.476;2023-05-27T04:50:45;8.18;;;5.95;;
75167;SDS011;63748;48.088;11.476;2023-05-27T04:53:11;8.63;;;5.65;;
75167;SDS011;63748;48.088;11.476;2023-05-27T04:55:37;10.07;;;6.63;;
75167;SDS011;63748;48.088;11.476;2023-05-27T04:58:04;9.02;;;5.35;;
75167;SDS011;63748;48.088;11.476;2023-05-27T05:00:30;9.27;;;4.95;;
75167;SDS011;63748;48.088;11.476;2023-05-27T05:03:18;9.50;;;5.63;;
75167;SDS011;63748;48.088;11.476;2023-05-27T05:05:50;9.40;;;6.03;;
75167;SDS011;63748;48.088;11.476;2023-05-27T05:08:17;10.80;;;5.50;;
75167;SDS011;63748;48.088;11.476;2023-05-27T05:10:43;9.07;;;5.18;;
75167;SDS011;63748;48.088;11.476;2023-05-27T05:13:09;9.55;;;5.85;;
75167;SDS011;63748;48.088;11.476;2023-05-27T05:15:35;9.88;;;6.13;;
75167;SDS011;63748;48.088;11.476;2023-05-27T05:18:01;10.25;;;6.05;;
75167;SDS011;63748;48.088;11.476;2023-05-27T05:20:27;9.40;;;5.30;;
75167;SDS011;63748;48.088;11.476;2023-05-27T05:22:54;7.63;;;5.35;;
75167;SDS011;63748;48.088;11.476;2023-05-27T05:25:21;9.77;;;5.60;;
75167;SDS011;63748;48.088;11.476;2023-05-27T05:27:47;13.18;;;5.50;;
75167;SDS011;63748;48.088;11.476;2023-05-27T05:30:13;7.75;;;4.57;;
75167;SDS011;63748;48.088;11.476;2023-05-27T05:32:40;11.10;;;4.90;;
75167;SDS011;63748;48.088;11.476;2023-05-27T05:35:06;10.45;;;4.95;;
75167;SDS011;63748;48.088;11.476;2023-05-27T05:37:32;13.35;;;5.05;;
75167;SDS011;63748;48.088;11.476;2023-05-27T05:39:58;10.88;;;5.35;;
75167;SDS011;63748;48.088;11.476;2023-05-27T05:42:24;8.70;;;5.05;;
75167;SDS011;63748;48.088;11.476;2023-05-27T05:44:51;8.88;;;4.80;;
75167;SDS011;63748;48.088;11.476;2023-05-27T05:47:17;11.25;;;5.07;;
75167;SDS011;63748;48.088;11.476;2023-05-27T05:49:43;11.30;;;4.80;;
75167;SDS011;63748;48.088;11.476;2023-05-27T05:52:09;15.32;;;5.38;;
75167;SDS011;63748;48.088;11.476;2023-05-27T05:54:35;10.23;;;5.35;;
75167;SDS011;63748;48.088;11.476;2023-05-27T05:57:01;8.93;;;5.13;;
75167;SDS011;63748;48.088;11.476;2023-05-27T05:59:28;9.05;;;4.40;;
75167;SDS011;63748;48.088;11.476;2023-05-27T06:01:54;9.40;;;4.70;;
75167;SDS011;63748;48.088;11.476;2023-05-27T06:04:20;8.93;;;5.00;;
75167;SDS011;63748;48.088;11.476;2023-05-27T06:06:46;12.25;;;5.18;;
75167;SDS011;63748;48.088;11.476;2023-05-27T06:09:12;9.43;;;5.05;;
75167;SDS011;63748;48.088;11.476;2023-05-27T06:11:39;10.90;;;4.53;;
75167;SDS011;63748;48.088;11.476;2023-05-27T06:14:05;13.27;;;4.93;;
75167;SDS011;63748;48.088;11.476;2023-05-27T06:16:32;8.20;;;5.05;;
75167;SDS011;63748;48.088;11.476;2023-05-27T06:19:00;7.95;;;4.43;;
75167;SDS011;63748;48.088;11.476;2023-05-27T06:21:26;10.50;;;4.32;;
75167;SDS011;63748;48.088;11.476;2023-05-27T06:23:52;9.57;;;4.70;;
75167;SDS011;63748;48.088;11.476;2023-05-27T06:26:18;9.90;;;4.35;;
75167;SDS011;63748;48.088;11.476;2023-05-27T06:28:44;8.90;;;4.78;;
75167;SDS011;63748;48.088;11.476;2023-05-27T06:31:10;6.68;;;3.95;;
75167;SDS011;63748;48.088;11.476;2023-05-27T06:33:36;5.95;;;4.15;;
75167;SDS011;63748;48.088;11.476;2023-05-27T06:36:02;10.15;;;4.80;;
75167;SDS011;63748;48.088;11.476;2023-05-27T06:38:28;8.02;;;4.45;;
75167;SDS011;63748;48.088;11.476;2023-05-27T06:40:54;8.25;;;4.32;;
75167;SDS011;63748;48.088;11.476;2023-05-27T06:43:20;7.20;;;4.30;;
75167;SDS011;63748;48.088;11.476;2023-05-27T06:45:47;9.50;;;4.10;;
75167;SDS011;63748;48.088;11.476;2023-05-27T06:48:13;8.55;;;4.25;;
75167;SDS011;63748;48.088;11.476;2023-05-27T06:50:39;12.23;;;3.80;;
75167;SDS011;63748;48.088;11.476;2023-05-27T06:53:05;9.38;;;3.88;;
75167;SDS011;63748;48.088;11.476;2023-05-27T06:55:31;6.68;;;4.30;;
75167;SDS011;63748;48.088;11.476;2023-05-27T06:57:57;6.72;;;3.72;;
75167;SDS011;63748;48.088;11.476;2023-05-27T07:00:23;6.78;;;3.88;;
75167;SDS011;63748;48.088;11.476;2023-05-27T07:02:50;5.50;;;3.72;;
75167;SDS011;63748;48.088;11.476;2023-05-27T07:05:16;7.22;;;3.80;;
75167;SDS011;63748;48.088;11.476;2023-05-27T07:07:43;6.35;;;3.92;;
75167;SDS011;63748;48.088;11.476;2023-05-27T07:10:09;5.25;;;3.30;;
75167;SDS011;63748;48.088;11.476;2023-05-27T07:12:35;8.10;;;4.13;;
75167;SDS011;63748;48.088;11.476;2023-05-27T07:15:01;8.75;;;3.92;;
75167;SDS011;63748;48.088;11.476;2023-05-27T07:17:28;6.22;;;3.65;;
75167;SDS011;63748;48.088;11.476;2023-05-27T07:19:54;11.43;;;4.32;;
75167;SDS011;63748;48.088;11.476;2023-05-27T07:22:20;7.70;;;3.63;;
75167;SDS011;63748;48.088;11.476;2023-05-27T07:24:46;6.88;;;4.00;;
75167;SDS011;63748;48.088;11.476;2023-05-27T07:27:12;8.52;;;3.78;;
75167;SDS011;63748;48.088;11.476;2023-05-27T07:29:39;9.00;;;3.72;;
75167;SDS011;63748;48.088;11.476;2023-05-27T07:32:05;7.10;;;3.72;;
75167;SDS011;63748;48.088;11.476;2023-05-27T07:34:31;5.88;;;3.50;;
75167;SDS011;63748;48.088;11.476;2023-05-27T07:36:57;9.02;;;3.72;;
75167;SDS011;63748;48.088;11.476;2023-05-27T07:39:24;8.52;;;4.00;;
75167;SDS011;63748;48.088;11.476;2023-05-27T07:41:50;9.07;;;4.03;;
75167;SDS011;63748;48.088;11.476;2023-05-27T07:44:16;7.55;;;3.60;;
75167;SDS011;63748;48.088;11.476;2023-05-27T07:46:42;8.10;;;3.70;;
75167;SDS011;63748;48.088;11.476;2023-05-27T07:49:08;7.07;;;3.42;;
75167;SDS011;63748;48.088;11.476;2023-05-27T07:51:34;6.55;;;3.60;;
75167;SDS011;63748;48.088;11.476;2023-05-27T07:54:01;9.35;;;3.67;;
75167;SDS011;63748;48.088;11.476;2023-05-27T07:56:27;7.93;;;3.85;;
75167;SDS011;63748;48.088;11.476;2023-05-27T07:58:53;7.57;;;3.60;;
75167;SDS011;63748;48.088;11.476;2023-05-27T08:01:19;8.48;;;3.63;;
75167;SDS011;63748;48.088;11.476;2023-05-27T08:03:45;7.30;;;3.55;;
75167;SDS011;63748;48.088;11.476;2023-05-27T08:06:12;6.78;;;3.20;;
75167;SDS011;63748;48.088;11.476;2023-05-27T08:08:38;9.95;;;3.63;;
75167;SDS011;63748;48.088;11.476;2023-05-27T08:11:05;7.43;;;3.63;;
75167;SDS011;63748;48.088;11.476;2023-05-27T08:13:32;5.75;;;2.92;;
75167;SDS011;63748;48.088;11.476;2023-05-27T08:15:58;6.57;;;3.70;;
75167;SDS011;63748;48.088;11.476;2023-05-27T08:18:24;9.23;;;3.28;;
75167;SDS011;63748;48.088;11.476;2023-05-27T08:20:50;10.18;;;3.53;;
75167;SDS011;63748;48.088;11.476;2023-05-27T08:23:17;7.68;;;2.97;;
75167;SDS011;63748;48.088;11.476;2023-05-27T08:25:43;6.75;;;3.75;;
75167;SDS011;63748;48.088;11.476;2023-05-27T08:28:09;6.75;;;3.45;;
75167;SDS011;63748;48.088;11.476;2023-05-27T08:30:36;8.52;;;3.85;;
75167;SDS011;63748;48.088;11.476;2023-05-27T08:33:02;9.57;;;3.75;;
75167;SDS011;63748;48.088;11.476;2023-05-27T08:35:28;6.72;;;3.28;;
75167;SDS011;63748;48.088;11.476;2023-05-27T08:37:55;8.52;;;3.35;;
75167;SDS011;63748;48.088;11.476;2023-05-27T08:40:21;11.85;;;3.85;;
75167;SDS011;63748;48.088;11.476;2023-05-27T08:42:47;7.65;;;3.25;;
75167;SDS011;63748;48.088;11.476;2023-05-27T08:45:13;7.22;;;3.85;;
75167;SDS011;63748;48.088;11.476;2023-05-27T08:47:40;7.97;;;3.65;;
75167;SDS011;63748;48.088;11.476;2023-05-27T08:50:06;11.73;;;3.50;;
75167;SDS011;63748;48.088;11.476;2023-05-27T08:52:32;5.65;;;3.30;;
75167;SDS011;63748;48.088;11.476;2023-05-27T08:55:00;10.13;;;4.00;;
75167;SDS011;63748;48.088;11.476;2023-05-27T08:59:52;6.22;;;3.60;;
75167;SDS011;63748;48.088;11.476;2023-05-27T09:02:20;7.15;;;3.70;;
75167;SDS011;63748;48.088;11.476;2023-05-27T09:04:46;9.48;;;3.65;;
75167;SDS011;63748;48.088;11.476;2023-05-27T09:07:12;8.45;;;4.15;;
75167;SDS011;63748;48.088;11.476;2023-05-27T09:09:39;8.82;;;3.80;;
75167;SDS011;63748;48.088;11.476;2023-05-27T09:12:05;10.40;;;4.18;;
75167;SDS011;63748;48.088;11.476;2023-05-27T09:14:33;10.43;;;4.00;;
75167;SDS011;63748;48.088;11.476;2023-05-27T09:17:05;11.18;;;3.63;;
75167;SDS011;63748;48.088;11.476;2023-05-27T09:19:31;9.85;;;4.03;;
75167;SDS011;63748;48.088;11.476;2023-05-27T09:21:57;8.20;;;3.53;;
75167;SDS011;63748;48.088;11.476;2023-05-27T09:24:23;11.75;;;4.55;;
75167;SDS011;63748;48.088;11.476;2023-05-27T09:26:53;11.85;;;4.03;;
75167;SDS011;63748;48.088;11.476;2023-05-27T09:29:19;8.60;;;4.13;;
75167;SDS011;63748;48.088;11.476;2023-05-27T09:31:45;11.27;;;4.63;;
75167;SDS011;63748;48.088;11.476;2023-05-27T09:34:12;9.23;;;4.57;;
75167;SDS011;63748;48.088;11.476;2023-05-27T09:36:42;7.85;;;3.90;;
75167;SDS011;63748;48.088;11.476;2023-05-27T09:39:08;7.93;;;4.03;;
75167;SDS011;63748;48.088;11.476;2023-05-27T09:41:35;7.90;;;4.35;;
75167;SDS011;63748;48.088;11.476;2023-05-27T09:44:03;8.93;;;4.68;;
75167;SDS011;63748;48.088;11.476;2023-05-27T09:46:31;8.45;;;3.70;;
75167;SDS011;63748;48.088;11.476;2023-05-27T09:51:25;8.43;;;4.00;;
75167;SDS011;63748;48.088;11.476;2023-05-27T09:53:53;5.75;;;4.00;;
75167;SDS011;63748;48.088;11.476;2023-05-27T09:56:25;10.35;;;4.40;;
75167;SDS011;63748;48.088;11.476;2023-05-27T09:58:55;7.00;;;4.05;;
75167;SDS011;63748;48.088;11.476;2023-05-27T10:01:28;9.18;;;3.92;;
75167;SDS011;63748;48.088;11.476;2023-05-27T10:03:55;9.35;;;4.45;;
75167;SDS011;63748;48.088;11.476;2023-05-27T10:06:22;7.68;;;4.03;;
75167;SDS011;63748;48.088;11.476;2023-05-27T10:08:51;6.53;;;4.25;;
75167;SDS011;63748;48.088;11.476;2023-05-27T10:11:26;11.82;;;4.68;;
75167;SDS011;63748;48.088;11.476;2023-05-27T10:13:55;9.13;;;3.90;;
75167;SDS011;63748;48.088;11.476;2023-05-27T10:16:22;8.32;;;4.35;;
75167;SDS011;63748;48.088;11.476;2023-05-27T10:18:52;9.13;;;4.38;;
75167;SDS011;63748;48.088;11.476;2023-05-27T10:21:19;7.75;;;3.75;;
75167;SDS011;63748;48.088;11.476;2023-05-27T10:23:52;11.38;;;4.85;;
75167;SDS011;63748;48.088;11.476;2023-05-27T10:26:31;7.43;;;4.25;;
75167;SDS011;63748;48.088;11.476;2023-05-27T10:29:04;4.80;;;3.42;;
75167;SDS011;63748;48.088;11.476;2023-05-27T10:31:30;7.03;;;4.50;;
75167;SDS011;63748;48.088;11.476;2023-05-27T10:33:57;10.52;;;4.30;;
75167;SDS011;63748;48.088;11.476;2023-05-27T10:36:25;7.78;;;3.70;;
75167;SDS011;63748;48.088;11.476;2023-05-27T10:39:15;10.43;;;4.10;;
75167;SDS011;63748;48.088;11.476;2023-05-27T10:41:48;6.00;;;3.80;;
75167;SDS011;63748;48.088;11.476;2023-05-27T10:44:25;7.18;;;4.03;;
75167;SDS011;63748;48.088;11.476;2023-05-27T10:46:58;9.48;;;4.22;;
75167;SDS011;63748;48.088;11.476;2023-05-27T10:49:25;6.63;;;3.88;;
75167;SDS011;63748;48.088;11.476;2023-05-27T10:51:57;6.20;;;3.70;;
75167;SDS011;63748;48.088;11.476;2023-05-27T10:54:25;8.48;;;3.70;;
75167;SDS011;63748;48.088;11.476;2023-05-27T10:56:52;6.97;;;4.18;;
75167;SDS011;63748;48.088;11.476;2023-05-27T10:59:19;12.18;;;4.30;;
75167;SDS011;63748;48.088;11.476;2023-05-27T11:01:47;8.65;;;5.28;;
75167;SDS011;63748;48.088;11.476;2023-05-27T11:04:16;7.22;;;4.38;;
75167;SDS011;63748;48.088;11.476;2023-05-27T11:06:42;6.30;;;3.60;;
75167;SDS011;63748;48.088;11.476;2023-05-27T11:09:08;7.53;;;3.90;;
75167;SDS011;63748;48.088;11.476;2023-05-27T11:11:35;10.07;;;3.90;;
75167;SDS011;63748;48.088;11.476;2023-05-27T11:14:02;9.43;;;4.22;;
75167;SDS011;63748;48.088;11.476;2023-05-27T11:16:28;8.35;;;4.25;;
75167;SDS011;63748;48.088;11.476;2023-05-27T11:18:54;7.60;;;3.95;;
75167;SDS011;63748;48.088;11.476;2023-05-27T11:21:20;5.68;;;4.25;;
75167;SDS011;63748;48.088;11.476;2023-05-27T11:23:47;9.45;;;4.90;;
75167;SDS011;63748;48.088;11.476;2023-05-27T11:26:20;6.70;;;3.75;;
75167;SDS011;63748;48.088;11.476;2023-05-27T11:28:50;7.55;;;4.30;;
75167;SDS011;63748;48.088;11.476;2023-05-27T11:31:17;5.45;;;3.60;;
75167;SDS011;63748;48.088;11.476;2023-05-27T11:33:45;7.53;;;3.72;;
75167;SDS011;63748;48.088;11.476;2023-05-27T11:36:12;8.10;;;3.95;;
75167;SDS011;63748;48.088;11.476;2023-05-27T11:38:47;7.15;;;4.05;;
75167;SDS011;63748;48.088;11.476;2023-05-27T11:41:13;9.93;;;4.10;;
75167;SDS011;63748;48.088;11.476;2023-05-27T11:43:46;5.65;;;3.83;;
75167;SDS011;63748;48.088;11.476;2023-05-27T11:46:12;7.25;;;3.85;;
75167;SDS011;63748;48.088;11.476;2023-05-27T11:48:38;6.80;;;3.70;;
75167;SDS011;63748;48.088;11.476;2023-05-27T11:51:05;7.10;;;3.97;;
75167;SDS011;63748;48.088;11.476;2023-05-27T11:53:31;8.95;;;4.18;;
75167;SDS011;63748;48.088;11.476;2023-05-27T11:55:57;6.80;;;3.88;;
75167;SDS011;63748;48.088;11.476;2023-05-27T11:58:23;9.77;;;4.05;;
75167;SDS011;63748;48.088;11.476;2023-05-27T12:00:49;9.13;;;4.43;;
75167;SDS011;63748;48.088;11.476;2023-05-27T12:03:15;6.10;;;3.63;;
75167;SDS011;63748;48.088;11.476;2023-05-27T12:05:42;9.55;;;3.85;;
75167;SDS011;63748;48.088;11.476;2023-05-27T12:08:08;7.38;;;3.65;;
75167;SDS011;63748;48.088;11.476;2023-05-27T12:10:34;6.65;;;3.53;;
75167;SDS011;63748;48.088;11.476;2023-05-27T12:13:03;7.07;;;3.60;;
75167;SDS011;63748;48.088;11.476;2023-05-27T12:15:30;6.55;;;3.15;;
75167;SDS011;63748;48.088;11.476;2023-05-27T12:17:57;6.45;;;4.07;;
75167;SDS011;63748;48.088;11.476;2023-05-27T12:20:23;6.88;;;3.85;;
75167;SDS011;63748;48.088;11.476;2023-05-27T12:22:52;5.85;;;3.85;;
75167;SDS011;63748;48.088;11.476;2023-05-27T12:25:19;7.45;;;3.85;;
75167;SDS011;63748;48.088;11.476;2023-05-27T12:27:45;6.93;;;3.53;;
75167;SDS011;63748;48.088;11.476;2023-05-27T12:30:11;8.57;;;3.78;;
75167;SDS011;63748;48.088;11.476;2023-05-27T12:32:38;5.38;;;3.35;;
75167;SDS011;63748;48.088;11.476;2023-05-27T12:35:05;6.10;;;3.70;;
75167;SDS011;63748;48.088;11.476;2023-05-27T12:37:31;9.13;;;3.40;;
75167;SDS011;63748;48.088;11.476;2023-05-27T12:39:57;7.32;;;3.80;;
75167;SDS011;63748;48.088;11.476;2023-05-27T12:42:23;7.40;;;3.70;;
75167;SDS011;63748;48.088;11.476;2023-05-27T12:44:49;6.20;;;3.33;;
75167;SDS011;63748;48.088;11.476;2023-05-27T12:47:15;6.55;;;3.38;;
75167;SDS011;63748;48.088;11.476;2023-05-27T12:49:41;7.53;;;3.35;;
75167;SDS011;63748;48.088;11.476;2023-05-27T12:52:07;7.25;;;3.55;;
75167;SDS011;63748;48.088;11.476;2023-05-27T12:54:33;5.53;;;3.35;;
75167;SDS011;63748;48.088;11.476;2023-05-27T12:57:00;5.20;;;3.20;;
75167;SDS011;63748;48.088;11.476;2023-05-27T12:59:30;9.48;;;3.45;;
75167;SDS011;63748;48.088;11.476;2023-05-27T13:01:56;8.02;;;4.13;;
75167;SDS011;63748;48.088;11.476;2023-05-27T13:04:22;6.25;;;3.33;;
75167;SDS011;63748;48.088;11.476;2023-05-27T13:06:48;6.65;;;3.67;;
75167;SDS011;63748;48.088;11.476;2023-05-27T13:09:14;5.20;;;2.90;;
75167;SDS011;63748;48.088;11.476;2023-05-27T13:11:41;8.02;;;3.78;;
75167;SDS011;63748;48.088;11.476;2023-05-27T13:14:07;6.13;;;3.30;;
75167;SDS011;63748;48.088;11.476;2023-05-27T13:16:33;5.25;;;3.17;;
75167;SDS011;63748;48.088;11.476;2023-05-27T13:18:59;6.68;;;3.33;;
75167;SDS011;63748;48.088;11.476;2023-05-27T13:21:25;6.03;;;3.10;;
75167;SDS011;63748;48.088;11.476;2023-05-27T13:23:53;5.32;;;3.22;;
75167;SDS011;63748;48.088;11.476;2023-05-27T13:26:19;7.47;;;3.42;;
75167;SDS011;63748;48.088;11.476;2023-05-27T13:28:46;6.45;;;3.15;;
75167;SDS011;63748;48.088;11.476;2023-05-27T13:31:12;9.57;;;3.63;;
75167;SDS011;63748;48.088;11.476;2023-05-27T13:33:39;6.30;;;3.15;;
75167;SDS011;63748;48.088;11.476;2023-05-27T13:36:05;6.10;;;3.72;;
75167;SDS011;63748;48.088;11.476;2023-05-27T13:38:32;4.88;;;3.30;;
75167;SDS011;63748;48.088;11.476;2023-05-27T13:40:58;6.30;;;3.67;;
75167;SDS011;63748;48.088;11.476;2023-05-27T13:43:27;8.52;;;3.45;;
75167;SDS011;63748;48.088;11.476;2023-05-27T13:45:53;7.85;;;3.45;;
75167;SDS011;63748;48.088;11.476;2023-05-27T13:48:19;7.65;;;3.83;;
75167;SDS011;63748;48.088;11.476;2023-05-27T13:50:46;7.22;;;3.63;;
75167;SDS011;63748;48.088;11.476;2023-05-27T13:53:12;5.93;;;3.35;;
75167;SDS011;63748;48.088;11.476;2023-05-27T13:55:38;5.85;;;3.58;;
75167;SDS011;63748;48.088;11.476;2023-05-27T13:58:04;7.07;;;3.13;;
75167;SDS011;63748;48.088;11.476;2023-05-27T14:00:30;7.93;;;3.10;;
75167;SDS011;63748;48.088;11.476;2023-05-27T14:02:57;6.18;;;3.00;;
75167;SDS011;63748;48.088;11.476;2023-05-27T14:05:29;6.25;;;3.42;;
75167;SDS011;63748;48.088;11.476;2023-05-27T14:07:55;5.47;;;3.28;;
75167;SDS011;63748;48.088;11.476;2023-05-27T14:10:22;5.55;;;3.08;;
75167;SDS011;63748;48.088;11.476;2023-05-27T14:12:48;5.65;;;3.03;;
75167;SDS011;63748;48.088;11.476;2023-05-27T14:15:14;6.32;;;3.10;;
75167;SDS011;63748;48.088;11.476;2023-05-27T14:17:40;8.15;;;3.13;;
75167;SDS011;63748;48.088;11.476;2023-05-27T14:20:07;5.13;;;3.20;;
75167;SDS011;63748;48.088;11.476;2023-05-27T14:22:38;5.07;;;3.33;;
75167;SDS011;63748;48.088;11.476;2023-05-27T14:25:07;5.30;;;2.92;;
75167;SDS011;63748;48.088;11.476;2023-05-27T14:27:34;7.10;;;3.35;;
75167;SDS011;63748;48.088;11.476;2023-05-27T14:30:00;7.78;;;3.30;;
75167;SDS011;63748;48.088;11.476;2023-05-27T14:32:26;7.43;;;3.13;;
75167;SDS011;63748;48.088;11.476;2023-05-27T14:34:52;5.50;;;2.97;;
75167;SDS011;63748;48.088;11.476;2023-05-27T14:37:20;6.95;;;3.30;;
75167;SDS011;63748;48.088;11.476;2023-05-27T14:39:46;6.57;;;3.38;;